sensor_id;sensor_type;location;lat;lon;timestamp;P1;durP1;ratioP1;P2;durP2;ratioP2
23346;SDS011;36852;45.466;11.066;2023-06-14T00:00:08;7.00;;;5.10;;
23346;SDS011;36852;45.466;11.066;2023-06-14T00:02:37;5.92;;;4.62;;
23346;SDS011;36852;45.466;11.066;2023-06-14T00:05:08;6.55;;;4.85;;
23346;SDS011;36852;45.466;11.066;2023-06-14T00:07:36;8.00;;;4.35;;
23346;SDS011;36852;45.466;11.066;2023-06-14T00:10:08;4.70;;;4.20;;
23346;SDS011;36852;45.466;11.066;2023-06-14T00:12:45;7.15;;;4.30;;
23346;SDS011;36852;45.466;11.066;2023-06-14T00:15:13;6.72;;;4.40;;
23346;SDS011;36852;45.466;11.066;2023-06-14T00:17:41;6.20;;;4.30;;
23346;SDS011;36852;45.466;11.066;2023-06-14T00:20:15;5.92;;;4.50;;
23346;SDS011;36852;45.466;11.066;2023-06-14T00:22:43;4.80;;;4.30;;
23346;SDS011;36852;45.466;11.066;2023-06-14T00:25:12;4.67;;;3.83;;
23346;SDS011;36852;45.466;11.066;2023-06-14T00:27:42;6.67;;;4.60;;
23346;SDS011;36852;45.466;11.066;2023-06-14T00:30:11;4.72;;;4.03;;
23346;SDS011;36852;45.466;11.066;2023-06-14T00:32:39;7.80;;;4.10;;
23346;SDS011;36852;45.466;11.066;2023-06-14T00:35:07;7.37;;;4.50;;
23346;SDS011;36852;45.466;11.066;2023-06-14T00:37:36;9.28;;;4.53;;
23346;SDS011;36852;45.466;11.066;2023-06-14T00:40:04;7.15;;;4.40;;
23346;SDS011;36852;45.466;11.066;2023-06-14T00:42:33;5.97;;;4.30;;
23346;SDS011;36852;45.466;11.066;2023-06-14T00:45:04;6.28;;;4.30;;
23346;SDS011;36852;45.466;11.066;2023-06-14T00:47:32;4.37;;;3.90;;
23346;SDS011;36852;45.466;11.066;2023-06-14T00:50:01;7.72;;;4.67;;
23346;SDS011;36852;45.466;11.066;2023-06-14T00:52:29;5.35;;;4.22;;
23346;SDS011;36852;45.466;11.066;2023-06-14T00:54:59;6.25;;;5.00;;
23346;SDS011;36852;45.466;11.066;2023-06-14T00:57:28;6.30;;;4.47;;
23346;SDS011;36852;45.466;11.066;2023-06-14T00:59:57;6.10;;;3.92;;
23346;SDS011;36852;45.466;11.066;2023-06-14T01:02:27;5.35;;;4.75;;
23346;SDS011;36852;45.466;11.066;2023-06-14T01:04:56;5.83;;;4.33;;
23346;SDS011;36852;45.466;11.066;2023-06-14T01:13:05;5.47;;;3.92;;
23346;SDS011;36852;45.466;11.066;2023-06-14T01:15:34;3.90;;;3.45;;
23346;SDS011;36852;45.466;11.066;2023-06-14T01:18:04;4.50;;;3.98;;
23346;SDS011;36852;45.466;11.066;2023-06-14T01:20:33;7.92;;;4.72;;
23346;SDS011;36852;45.466;11.066;2023-06-14T01:23:05;6.15;;;4.33;;
23346;SDS011;36852;45.466;11.066;2023-06-14T01:25:33;8.00;;;4.33;;
23346;SDS011;36852;45.466;11.066;2023-06-14T01:28:03;5.17;;;4.05;;
23346;SDS011;36852;45.466;11.066;2023-06-14T01:30:34;5.33;;;3.95;;
23346;SDS011;36852;45.466;11.066;2023-06-14T01:33:02;5.70;;;4.20;;
23346;SDS011;36852;45.466;11.066;2023-06-14T01:35:31;4.47;;;4.00;;
23346;SDS011;36852;45.466;11.066;2023-06-14T01:38:01;6.53;;;4.47;;
23346;SDS011;36852;45.466;11.066;2023-06-14T01:40:30;4.33;;;3.92;;
23346;SDS011;36852;45.466;11.066;2023-06-14T01:42:59;5.85;;;3.92;;
23346;SDS011;36852;45.466;11.066;2023-06-14T01:45:29;6.60;;;4.67;;
23346;SDS011;36852;45.466;11.066;2023-06-14T01:47:58;6.33;;;4.55;;
23346;SDS011;36852;45.466;11.066;2023-06-14T01:50:33;5.50;;;3.62;;
23346;SDS011;36852;45.466;11.066;2023-06-14T01:52:58;5.42;;;4.15;;
23346;SDS011;36852;45.466;11.066;2023-06-14T01:55:26;5.53;;;4.20;;
23346;SDS011;36852;45.466;11.066;2023-06-14T01:57:54;5.67;;;4.70;;
23346;SDS011;36852;45.466;11.066;2023-06-14T02:00:22;5.47;;;4.70;;
23346;SDS011;36852;45.466;11.066;2023-06-14T02:02:51;11.33;;;4.20;;
23346;SDS011;36852;45.466;11.066;2023-06-14T02:05:20;5.42;;;3.95;;
23346;SDS011;36852;45.466;11.066;2023-06-14T02:07:47;4.92;;;3.85;;
23346;SDS011;36852;45.466;11.066;2023-06-14T02:10:17;6.58;;;4.78;;
23346;SDS011;36852;45.466;11.066;2023-06-14T02:12:46;8.00;;;5.20;;
23346;SDS011;36852;45.466;11.066;2023-06-14T02:15:15;5.50;;;4.72;;
23346;SDS011;36852;45.466;11.066;2023-06-14T02:17:48;4.87;;;4.33;;
23346;SDS011;36852;45.466;11.066;2023-06-14T02:23:07;9.13;;;4.50;;
23346;SDS011;36852;45.466;11.066;2023-06-14T02:25:35;5.22;;;4.40;;
23346;SDS011;36852;45.466;11.066;2023-06-14T02:28:05;6.42;;;4.22;;
23346;SDS011;36852;45.466;11.066;2023-06-14T02:30:33;6.35;;;4.62;;
23346;SDS011;36852;45.466;11.066;2023-06-14T02:33:01;5.80;;;4.75;;
23346;SDS011;36852;45.466;11.066;2023-06-14T02:35:32;6.87;;;4.70;;
23346;SDS011;36852;45.466;11.066;2023-06-14T02:38:02;5.28;;;4.60;;
23346;SDS011;36852;45.466;11.066;2023-06-14T02:40:32;5.45;;;4.95;;
23346;SDS011;36852;45.466;11.066;2023-06-14T02:43:04;5.65;;;4.50;;
23346;SDS011;36852;45.466;11.066;2023-06-14T02:45:32;5.03;;;4.53;;
23346;SDS011;36852;45.466;11.066;2023-06-14T02:48:00;7.37;;;4.85;;
23346;SDS011;36852;45.466;11.066;2023-06-14T02:50:28;5.67;;;4.40;;
23346;SDS011;36852;45.466;11.066;2023-06-14T02:52:57;6.97;;;5.22;;
23346;SDS011;36852;45.466;11.066;2023-06-14T02:55:25;7.28;;;5.10;;
23346;SDS011;36852;45.466;11.066;2023-06-14T02:57:56;5.65;;;4.83;;
23346;SDS011;36852;45.466;11.066;2023-06-14T03:00:25;9.60;;;5.10;;
23346;SDS011;36852;45.466;11.066;2023-06-14T03:02:53;9.25;;;5.37;;
23346;SDS011;36852;45.466;11.066;2023-06-14T03:05:23;8.75;;;5.40;;
23346;SDS011;36852;45.466;11.066;2023-06-14T03:07:51;7.95;;;4.90;;
23346;SDS011;36852;45.466;11.066;2023-06-14T03:13:07;6.87;;;4.75;;
23346;SDS011;36852;45.466;11.066;2023-06-14T03:15:35;5.53;;;4.75;;
23346;SDS011;36852;45.466;11.066;2023-06-14T03:18:03;8.38;;;5.17;;
23346;SDS011;36852;45.466;11.066;2023-06-14T03:20:31;7.70;;;4.62;;
23346;SDS011;36852;45.466;11.066;2023-06-14T03:23:00;7.12;;;4.70;;
23346;SDS011;36852;45.466;11.066;2023-06-14T03:28:16;7.80;;;4.72;;
23346;SDS011;36852;45.466;11.066;2023-06-14T03:30:45;10.28;;;5.12;;
23346;SDS011;36852;45.466;11.066;2023-06-14T03:33:14;6.03;;;4.35;;
23346;SDS011;36852;45.466;11.066;2023-06-14T03:35:45;7.42;;;4.62;;
23346;SDS011;36852;45.466;11.066;2023-06-14T03:38:14;8.53;;;4.58;;
23346;SDS011;36852;45.466;11.066;2023-06-14T03:40:42;5.70;;;4.60;;
23346;SDS011;36852;45.466;11.066;2023-06-14T03:43:09;5.60;;;4.55;;
23346;SDS011;36852;45.466;11.066;2023-06-14T03:45:40;5.40;;;3.95;;
23346;SDS011;36852;45.466;11.066;2023-06-14T03:48:09;8.20;;;4.83;;
23346;SDS011;36852;45.466;11.066;2023-06-14T03:50:37;7.65;;;4.28;;
23346;SDS011;36852;45.466;11.066;2023-06-14T03:55:52;7.90;;;5.28;;
23346;SDS011;36852;45.466;11.066;2023-06-14T03:58:24;5.05;;;4.55;;
23346;SDS011;36852;45.466;11.066;2023-06-14T04:00:53;7.35;;;4.58;;
23346;SDS011;36852;45.466;11.066;2023-06-14T04:03:21;5.53;;;4.05;;
23346;SDS011;36852;45.466;11.066;2023-06-14T04:05:51;6.25;;;4.60;;
23346;SDS011;36852;45.466;11.066;2023-06-14T04:08:20;8.60;;;5.75;;
23346;SDS011;36852;45.466;11.066;2023-06-14T04:10:50;9.38;;;4.75;;
23346;SDS011;36852;45.466;11.066;2023-06-14T04:13:18;8.55;;;5.20;;
23346;SDS011;36852;45.466;11.066;2023-06-14T04:15:47;5.80;;;4.85;;
23346;SDS011;36852;45.466;11.066;2023-06-14T04:18:17;6.65;;;5.30;;
23346;SDS011;36852;45.466;11.066;2023-06-14T04:20:48;7.55;;;4.95;;
23346;SDS011;36852;45.466;11.066;2023-06-14T04:23:17;5.08;;;4.05;;
23346;SDS011;36852;45.466;11.066;2023-06-14T04:25:45;6.72;;;4.42;;
23346;SDS011;36852;45.466;11.066;2023-06-14T04:28:16;6.58;;;4.10;;
23346;SDS011;36852;45.466;11.066;2023-06-14T04:30:45;8.85;;;4.85;;
23346;SDS011;36852;45.466;11.066;2023-06-14T04:33:16;5.75;;;4.70;;
23346;SDS011;36852;45.466;11.066;2023-06-14T04:35:45;5.55;;;4.87;;
23346;SDS011;36852;45.466;11.066;2023-06-14T04:38:16;6.62;;;4.95;;
23346;SDS011;36852;45.466;11.066;2023-06-14T04:40:43;6.67;;;5.55;;
23346;SDS011;36852;45.466;11.066;2023-06-14T04:43:13;8.65;;;4.70;;
23346;SDS011;36852;45.466;11.066;2023-06-14T04:45:44;6.05;;;4.58;;
23346;SDS011;36852;45.466;11.066;2023-06-14T04:48:14;9.23;;;4.55;;
23346;SDS011;36852;45.466;11.066;2023-06-14T04:50:48;5.70;;;4.55;;
23346;SDS011;36852;45.466;11.066;2023-06-14T04:53:18;5.55;;;4.70;;
23346;SDS011;36852;45.466;11.066;2023-06-14T04:55:50;11.90;;;4.95;;
23346;SDS011;36852;45.466;11.066;2023-06-14T04:58:20;10.35;;;4.75;;
23346;SDS011;36852;45.466;11.066;2023-06-14T05:00:48;8.63;;;4.70;;
23346;SDS011;36852;45.466;11.066;2023-06-14T05:03:15;8.18;;;5.17;;
23346;SDS011;36852;45.466;11.066;2023-06-14T05:05:46;14.63;;;9.75;;
23346;SDS011;36852;45.466;11.066;2023-06-14T05:08:13;10.13;;;6.70;;
23346;SDS011;36852;45.466;11.066;2023-06-14T05:10:42;8.33;;;4.92;;
23346;SDS011;36852;45.466;11.066;2023-06-14T05:13:11;8.93;;;5.03;;
23346;SDS011;36852;45.466;11.066;2023-06-14T05:15:39;6.70;;;4.97;;
23346;SDS011;36852;45.466;11.066;2023-06-14T05:18:07;11.15;;;6.35;;
23346;SDS011;36852;45.466;11.066;2023-06-14T05:20:39;5.85;;;4.90;;
23346;SDS011;36852;45.466;11.066;2023-06-14T05:23:08;10.43;;;5.20;;
23346;SDS011;36852;45.466;11.066;2023-06-14T05:25:36;8.35;;;5.15;;
23346;SDS011;36852;45.466;11.066;2023-06-14T05:28:05;7.15;;;5.20;;
23346;SDS011;36852;45.466;11.066;2023-06-14T05:30:33;7.33;;;5.28;;
23346;SDS011;36852;45.466;11.066;2023-06-14T05:33:01;9.88;;;5.15;;
23346;SDS011;36852;45.466;11.066;2023-06-14T05:35:30;6.22;;;4.72;;
23346;SDS011;36852;45.466;11.066;2023-06-14T05:37:58;14.03;;;5.87;;
23346;SDS011;36852;45.466;11.066;2023-06-14T05:40:26;7.22;;;5.17;;
23346;SDS011;36852;45.466;11.066;2023-06-14T05:42:54;7.15;;;5.33;;
23346;SDS011;36852;45.466;11.066;2023-06-14T05:45:24;7.78;;;5.55;;
23346;SDS011;36852;45.466;11.066;2023-06-14T05:47:52;7.92;;;5.12;;
23346;SDS011;36852;45.466;11.066;2023-06-14T05:50:21;10.82;;;5.22;;
23346;SDS011;36852;45.466;11.066;2023-06-14T05:52:50;7.40;;;4.97;;
23346;SDS011;36852;45.466;11.066;2023-06-14T05:55:17;18.55;;;5.70;;
23346;SDS011;36852;45.466;11.066;2023-06-14T05:57:45;12.78;;;6.03;;
23346;SDS011;36852;45.466;11.066;2023-06-14T06:00:15;12.28;;;6.10;;
23346;SDS011;36852;45.466;11.066;2023-06-14T06:02:45;11.85;;;5.50;;
23346;SDS011;36852;45.466;11.066;2023-06-14T06:05:14;10.48;;;6.05;;
23346;SDS011;36852;45.466;11.066;2023-06-14T06:07:43;11.43;;;5.70;;
23346;SDS011;36852;45.466;11.066;2023-06-14T06:10:13;12.93;;;6.50;;
23346;SDS011;36852;45.466;11.066;2023-06-14T06:12:41;9.28;;;5.97;;
23346;SDS011;36852;45.466;11.066;2023-06-14T06:15:10;7.42;;;4.97;;
23346;SDS011;36852;45.466;11.066;2023-06-14T06:17:42;13.32;;;5.97;;
23346;SDS011;36852;45.466;11.066;2023-06-14T06:20:12;10.08;;;6.30;;
23346;SDS011;36852;45.466;11.066;2023-06-14T06:22:41;6.80;;;5.80;;
23346;SDS011;36852;45.466;11.066;2023-06-14T06:25:09;7.87;;;5.50;;
23346;SDS011;36852;45.466;11.066;2023-06-14T06:27:38;9.13;;;5.65;;
23346;SDS011;36852;45.466;11.066;2023-06-14T06:30:08;19.35;;;6.67;;
23346;SDS011;36852;45.466;11.066;2023-06-14T06:32:37;9.28;;;6.70;;
23346;SDS011;36852;45.466;11.066;2023-06-14T06:35:06;8.73;;;6.33;;
23346;SDS011;36852;45.466;11.066;2023-06-14T06:37:36;9.60;;;5.80;;
23346;SDS011;36852;45.466;11.066;2023-06-14T06:40:06;10.63;;;6.33;;
23346;SDS011;36852;45.466;11.066;2023-06-14T06:42:35;8.98;;;6.12;;
23346;SDS011;36852;45.466;11.066;2023-06-14T06:45:04;10.43;;;6.70;;
23346;SDS011;36852;45.466;11.066;2023-06-14T06:47:33;7.37;;;6.33;;
23346;SDS011;36852;45.466;11.066;2023-06-14T06:50:01;7.72;;;6.22;;
23346;SDS011;36852;45.466;11.066;2023-06-14T06:52:30;8.83;;;6.25;;
23346;SDS011;36852;45.466;11.066;2023-06-14T06:54:57;7.83;;;6.25;;
23346;SDS011;36852;45.466;11.066;2023-06-14T06:57:25;9.38;;;7.17;;
23346;SDS011;36852;45.466;11.066;2023-06-14T06:59:57;9.58;;;7.28;;
23346;SDS011;36852;45.466;11.066;2023-06-14T07:02:29;10.15;;;7.17;;
23346;SDS011;36852;45.466;11.066;2023-06-14T07:04:58;12.25;;;7.15;;
23346;SDS011;36852;45.466;11.066;2023-06-14T07:07:27;13.00;;;7.03;;
23346;SDS011;36852;45.466;11.066;2023-06-14T07:09:55;10.98;;;7.55;;
23346;SDS011;36852;45.466;11.066;2023-06-14T07:12:24;11.03;;;7.42;;
23346;SDS011;36852;45.466;11.066;2023-06-14T07:14:52;10.58;;;8.08;;
23346;SDS011;36852;45.466;11.066;2023-06-14T07:17:20;14.28;;;8.03;;
23346;SDS011;36852;45.466;11.066;2023-06-14T07:19:51;11.55;;;7.97;;
23346;SDS011;36852;45.466;11.066;2023-06-14T07:22:19;15.38;;;8.03;;
23346;SDS011;36852;45.466;11.066;2023-06-14T07:24:47;11.85;;;7.90;;
23346;SDS011;36852;45.466;11.066;2023-06-14T07:27:16;9.50;;;6.95;;
23346;SDS011;36852;45.466;11.066;2023-06-14T07:29:44;8.80;;;7.58;;
23346;SDS011;36852;45.466;11.066;2023-06-14T07:32:12;11.53;;;8.03;;
23346;SDS011;36852;45.466;11.066;2023-06-14T07:34:41;9.73;;;7.80;;
23346;SDS011;36852;45.466;11.066;2023-06-14T07:37:13;13.78;;;8.20;;
23346;SDS011;36852;45.466;11.066;2023-06-14T07:39:41;10.80;;;7.15;;
23346;SDS011;36852;45.466;11.066;2023-06-14T07:42:10;12.75;;;8.05;;
23346;SDS011;36852;45.466;11.066;2023-06-14T07:44:38;11.63;;;7.92;;
23346;SDS011;36852;45.466;11.066;2023-06-14T07:47:05;11.05;;;7.17;;
23346;SDS011;36852;45.466;11.066;2023-06-14T07:49:34;9.50;;;6.95;;
23346;SDS011;36852;45.466;11.066;2023-06-14T07:52:02;8.20;;;7.15;;
23346;SDS011;36852;45.466;11.066;2023-06-14T07:54:30;8.75;;;7.33;;
23346;SDS011;36852;45.466;11.066;2023-06-14T07:56:59;11.65;;;7.78;;
23346;SDS011;36852;45.466;11.066;2023-06-14T07:59:27;12.95;;;7.15;;
23346;SDS011;36852;45.466;11.066;2023-06-14T08:01:55;10.90;;;7.50;;
23346;SDS011;36852;45.466;11.066;2023-06-14T08:04:24;11.10;;;7.10;;
23346;SDS011;36852;45.466;11.066;2023-06-14T08:06:52;10.40;;;7.30;;
23346;SDS011;36852;45.466;11.066;2023-06-14T08:09:20;13.22;;;7.42;;
23346;SDS011;36852;45.466;11.066;2023-06-14T08:11:48;7.60;;;5.92;;
23346;SDS011;36852;45.466;11.066;2023-06-14T08:14:17;7.75;;;5.85;;
23346;SDS011;36852;45.466;11.066;2023-06-14T08:16:45;10.53;;;6.20;;
23346;SDS011;36852;45.466;11.066;2023-06-14T08:19:13;7.25;;;5.42;;
23346;SDS011;36852;45.466;11.066;2023-06-14T08:21:41;8.30;;;5.30;;
23346;SDS011;36852;45.466;11.066;2023-06-14T08:24:08;7.42;;;5.12;;
23346;SDS011;36852;45.466;11.066;2023-06-14T08:26:39;9.43;;;4.72;;
23346;SDS011;36852;45.466;11.066;2023-06-14T08:29:08;5.15;;;4.50;;
23346;SDS011;36852;45.466;11.066;2023-06-14T08:31:39;6.47;;;4.37;;
23346;SDS011;36852;45.466;11.066;2023-06-14T08:34:06;5.62;;;5.03;;
23346;SDS011;36852;45.466;11.066;2023-06-14T08:36:37;5.78;;;4.05;;
23346;SDS011;36852;45.466;11.066;2023-06-14T08:39:05;5.30;;;4.28;;
23346;SDS011;36852;45.466;11.066;2023-06-14T08:41:33;5.35;;;4.25;;
23346;SDS011;36852;45.466;11.066;2023-06-14T08:44:02;6.22;;;4.20;;
23346;SDS011;36852;45.466;11.066;2023-06-14T08:46:31;5.22;;;4.03;;
23346;SDS011;36852;45.466;11.066;2023-06-14T08:49:01;6.90;;;4.10;;
23346;SDS011;36852;45.466;11.066;2023-06-14T08:51:31;5.15;;;4.08;;
23346;SDS011;36852;45.466;11.066;2023-06-14T08:54:01;7.22;;;3.95;;
23346;SDS011;36852;45.466;11.066;2023-06-14T08:56:34;5.08;;;4.15;;
23346;SDS011;36852;45.466;11.066;2023-06-14T08:59:05;5.72;;;4.53;;
23346;SDS011;36852;45.466;11.066;2023-06-14T09:01:34;7.85;;;4.03;;
23346;SDS011;36852;45.466;11.066;2023-06-14T09:04:02;4.92;;;3.90;;
23346;SDS011;36852;45.466;11.066;2023-06-14T09:06:32;5.50;;;4.25;;
23346;SDS011;36852;45.466;11.066;2023-06-14T09:09:00;6.62;;;4.47;;
23346;SDS011;36852;45.466;11.066;2023-06-14T09:11:29;5.97;;;4.35;;
23346;SDS011;36852;45.466;11.066;2023-06-14T09:13:59;7.67;;;4.20;;
23346;SDS011;36852;45.466;11.066;2023-06-14T09:16:28;4.40;;;3.80;;
23346;SDS011;36852;45.466;11.066;2023-06-14T09:18:57;5.22;;;4.30;;
23346;SDS011;36852;45.466;11.066;2023-06-14T09:21:26;6.28;;;4.12;;
23346;SDS011;36852;45.466;11.066;2023-06-14T09:23:56;5.33;;;4.83;;
23346;SDS011;36852;45.466;11.066;2023-06-14T09:26:24;5.97;;;4.30;;
23346;SDS011;36852;45.466;11.066;2023-06-14T09:28:54;6.15;;;4.97;;
23346;SDS011;36852;45.466;11.066;2023-06-14T09:31:23;8.45;;;4.60;;
23346;SDS011;36852;45.466;11.066;2023-06-14T09:33:51;9.43;;;4.62;;
23346;SDS011;36852;45.466;11.066;2023-06-14T09:36:23;5.87;;;4.42;;
23346;SDS011;36852;45.466;11.066;2023-06-14T09:38:53;6.62;;;4.12;;
23346;SDS011;36852;45.466;11.066;2023-06-14T09:44:07;5.92;;;4.67;;
23346;SDS011;36852;45.466;11.066;2023-06-14T09:46:38;7.45;;;4.33;;
23346;SDS011;36852;45.466;11.066;2023-06-14T09:49:06;11.70;;;4.30;;
23346;SDS011;36852;45.466;11.066;2023-06-14T09:51:36;6.08;;;4.80;;
23346;SDS011;36852;45.466;11.066;2023-06-14T09:54:06;8.28;;;4.33;;
23346;SDS011;36852;45.466;11.066;2023-06-14T09:56:40;7.33;;;4.37;;
23346;SDS011;36852;45.466;11.066;2023-06-14T09:59:10;6.70;;;4.05;;
23346;SDS011;36852;45.466;11.066;2023-06-14T10:01:41;6.17;;;4.45;;
23346;SDS011;36852;45.466;11.066;2023-06-14T10:04:10;5.40;;;4.17;;
23346;SDS011;36852;45.466;11.066;2023-06-14T10:06:39;5.85;;;4.28;;
23346;SDS011;36852;45.466;11.066;2023-06-14T10:09:09;5.72;;;4.35;;
23346;SDS011;36852;45.466;11.066;2023-06-14T10:11:37;7.17;;;4.22;;
23346;SDS011;36852;45.466;11.066;2023-06-14T10:14:12;4.20;;;3.80;;
23346;SDS011;36852;45.466;11.066;2023-06-14T10:16:46;8.75;;;3.70;;
23346;SDS011;36852;45.466;11.066;2023-06-14T10:19:22;5.87;;;3.87;;
23346;SDS011;36852;45.466;11.066;2023-06-14T10:24:28;5.42;;;4.35;;
23346;SDS011;36852;45.466;11.066;2023-06-14T10:27:07;5.67;;;4.05;;
23346;SDS011;36852;45.466;11.066;2023-06-14T10:30:01;5.95;;;3.85;;
23346;SDS011;36852;45.466;11.066;2023-06-14T10:32:14;4.37;;;3.80;;
23346;SDS011;36852;45.466;11.066;2023-06-14T10:34:42;4.05;;;3.30;;
23346;SDS011;36852;45.466;11.066;2023-06-14T10:37:11;5.92;;;3.02;;
23346;SDS011;36852;45.466;11.066;2023-06-14T10:42:15;7.62;;;3.62;;
23346;SDS011;36852;45.466;11.066;2023-06-14T10:44:50;5.75;;;3.77;;
23346;SDS011;36852;45.466;11.066;2023-06-14T10:47:30;4.22;;;3.58;;
23346;SDS011;36852;45.466;11.066;2023-06-14T10:50:09;4.95;;;3.70;;
23346;SDS011;36852;45.466;11.066;2023-06-14T10:52:42;5.53;;;4.28;;
23346;SDS011;36852;45.466;11.066;2023-06-14T10:57:52;4.42;;;3.50;;
23346;SDS011;36852;45.466;11.066;2023-06-14T11:00:28;6.67;;;4.55;;
23346;SDS011;36852;45.466;11.066;2023-06-14T11:06:10;3.92;;;3.50;;
23346;SDS011;36852;45.466;11.066;2023-06-14T11:08:56;4.22;;;3.85;;
23346;SDS011;36852;45.466;11.066;2023-06-14T11:11:31;7.37;;;3.72;;
23346;SDS011;36852;45.466;11.066;2023-06-14T11:14:02;5.05;;;2.98;;
23346;SDS011;36852;45.466;11.066;2023-06-14T11:16:32;5.65;;;3.60;;
23346;SDS011;36852;45.466;11.066;2023-06-14T11:19:01;7.75;;;3.60;;
23346;SDS011;36852;45.466;11.066;2023-06-14T11:21:34;4.22;;;3.20;;
23346;SDS011;36852;45.466;11.066;2023-06-14T11:24:02;4.45;;;3.65;;
23346;SDS011;36852;45.466;11.066;2023-06-14T11:26:33;5.53;;;3.83;;
23346;SDS011;36852;45.466;11.066;2023-06-14T11:29:03;6.67;;;3.22;;
23346;SDS011;36852;45.466;11.066;2023-06-14T11:31:31;5.35;;;3.30;;
23346;SDS011;36852;45.466;11.066;2023-06-14T11:33:59;3.77;;;3.30;;
23346;SDS011;36852;45.466;11.066;2023-06-14T11:36:30;4.80;;;3.95;;
23346;SDS011;36852;45.466;11.066;2023-06-14T11:38:59;5.05;;;3.33;;
23346;SDS011;36852;45.466;11.066;2023-06-14T11:41:38;3.75;;;3.35;;
23346;SDS011;36852;45.466;11.066;2023-06-14T11:44:09;5.03;;;4.00;;
23346;SDS011;36852;45.466;11.066;2023-06-14T11:46:37;5.40;;;3.58;;
23346;SDS011;36852;45.466;11.066;2023-06-14T11:49:09;5.85;;;3.50;;
23346;SDS011;36852;45.466;11.066;2023-06-14T11:51:39;5.65;;;3.95;;
23346;SDS011;36852;45.466;11.066;2023-06-14T11:54:07;4.20;;;3.80;;
23346;SDS011;36852;45.466;11.066;2023-06-14T11:56:36;6.40;;;3.80;;
23346;SDS011;36852;45.466;11.066;2023-06-14T11:59:05;6.55;;;4.08;;
23346;SDS011;36852;45.466;11.066;2023-06-14T12:01:35;5.62;;;4.05;;
23346;SDS011;36852;45.466;11.066;2023-06-14T12:04:04;5.58;;;3.75;;
23346;SDS011;36852;45.466;11.066;2023-06-14T12:06:32;6.87;;;3.90;;
23346;SDS011;36852;45.466;11.066;2023-06-14T12:09:09;7.05;;;3.95;;
23346;SDS011;36852;45.466;11.066;2023-06-14T12:11:40;6.10;;;4.10;;
23346;SDS011;36852;45.466;11.066;2023-06-14T12:14:09;6.35;;;4.20;;
23346;SDS011;36852;45.466;11.066;2023-06-14T12:16:39;5.17;;;4.08;;
23346;SDS011;36852;45.466;11.066;2023-06-14T12:19:14;8.83;;;4.87;;
23346;SDS011;36852;45.466;11.066;2023-06-14T12:21:47;7.75;;;4.30;;
23346;SDS011;36852;45.466;11.066;2023-06-14T12:24:19;7.08;;;4.47;;
23346;SDS011;36852;45.466;11.066;2023-06-14T12:26:47;6.37;;;4.53;;
23346;SDS011;36852;45.466;11.066;2023-06-14T12:29:37;5.83;;;4.20;;
23346;SDS011;36852;45.466;11.066;2023-06-14T12:32:05;8.70;;;5.15;;
23346;SDS011;36852;45.466;11.066;2023-06-14T12:34:34;6.95;;;4.30;;
23346;SDS011;36852;45.466;11.066;2023-06-14T12:37:03;5.20;;;3.85;;
23346;SDS011;36852;45.466;11.066;2023-06-14T12:39:31;4.53;;;4.12;;
23346;SDS011;36852;45.466;11.066;2023-06-14T12:41:59;10.58;;;4.70;;
23346;SDS011;36852;45.466;11.066;2023-06-14T12:44:30;9.15;;;4.75;;
23346;SDS011;36852;45.466;11.066;2023-06-14T12:47:00;6.30;;;4.58;;
23346;SDS011;36852;45.466;11.066;2023-06-14T12:49:28;4.35;;;3.95;;
23346;SDS011;36852;45.466;11.066;2023-06-14T12:51:56;6.40;;;4.20;;
23346;SDS011;36852;45.466;11.066;2023-06-14T12:54:24;6.87;;;4.58;;
23346;SDS011;36852;45.466;11.066;2023-06-14T12:56:57;6.10;;;4.50;;
23346;SDS011;36852;45.466;11.066;2023-06-14T12:59:26;7.28;;;4.70;;
23346;SDS011;36852;45.466;11.066;2023-06-14T13:02:00;6.60;;;4.35;;
23346;SDS011;36852;45.466;11.066;2023-06-14T13:04:29;5.00;;;4.50;;
23346;SDS011;36852;45.466;11.066;2023-06-14T13:06:58;4.37;;;3.98;;
23346;SDS011;36852;45.466;11.066;2023-06-14T13:09:26;7.75;;;3.80;;
23346;SDS011;36852;45.466;11.066;2023-06-14T13:11:57;5.03;;;4.53;;
23346;SDS011;36852;45.466;11.066;2023-06-14T13:14:25;5.03;;;4.53;;
23346;SDS011;36852;45.466;11.066;2023-06-14T13:16:53;4.62;;;4.22;;
23346;SDS011;36852;45.466;11.066;2023-06-14T13:19:21;5.97;;;4.75;;
23346;SDS011;36852;45.466;11.066;2023-06-14T13:21:50;4.70;;;4.17;;
23346;SDS011;36852;45.466;11.066;2023-06-14T13:24:18;4.90;;;4.40;;
23346;SDS011;36852;45.466;11.066;2023-06-14T13:26:47;5.40;;;4.10;;
23346;SDS011;36852;45.466;11.066;2023-06-14T13:29:15;4.80;;;4.25;;
23346;SDS011;36852;45.466;11.066;2023-06-14T13:31:43;5.60;;;4.05;;
23346;SDS011;36852;45.466;11.066;2023-06-14T13:34:11;6.10;;;4.00;;
23346;SDS011;36852;45.466;11.066;2023-06-14T13:36:40;8.23;;;4.20;;
23346;SDS011;36852;45.466;11.066;2023-06-14T13:39:09;5.55;;;4.33;;
23346;SDS011;36852;45.466;11.066;2023-06-14T13:41:38;5.95;;;3.85;;
23346;SDS011;36852;45.466;11.066;2023-06-14T13:44:06;5.67;;;4.15;;
23346;SDS011;36852;45.466;11.066;2023-06-14T13:46:34;4.37;;;3.92;;
23346;SDS011;36852;45.466;11.066;2023-06-14T13:49:02;8.00;;;4.53;;
23346;SDS011;36852;45.466;11.066;2023-06-14T13:51:32;5.72;;;3.87;;
23346;SDS011;36852;45.466;11.066;2023-06-14T13:54:00;5.40;;;3.77;;
23346;SDS011;36852;45.466;11.066;2023-06-14T13:56:31;6.90;;;3.72;;
23346;SDS011;36852;45.466;11.066;2023-06-14T13:58:58;5.72;;;3.62;;
23346;SDS011;36852;45.466;11.066;2023-06-14T14:01:27;4.60;;;3.90;;
23346;SDS011;36852;45.466;11.066;2023-06-14T14:03:56;4.92;;;4.17;;
23346;SDS011;36852;45.466;11.066;2023-06-14T14:06:24;4.75;;;4.00;;
23346;SDS011;36852;45.466;11.066;2023-06-14T14:08:52;7.08;;;4.20;;
23346;SDS011;36852;45.466;11.066;2023-06-14T14:11:21;4.35;;;3.90;;
23346;SDS011;36852;45.466;11.066;2023-06-14T14:13:49;6.53;;;3.80;;
23346;SDS011;36852;45.466;11.066;2023-06-14T14:16:19;6.95;;;3.50;;
23346;SDS011;36852;45.466;11.066;2023-06-14T14:18:47;4.05;;;3.62;;
23346;SDS011;36852;45.466;11.066;2023-06-14T14:21:15;4.05;;;3.65;;
23346;SDS011;36852;45.466;11.066;2023-06-14T14:23:47;5.50;;;3.65;;
23346;SDS011;36852;45.466;11.066;2023-06-14T14:26:17;5.60;;;3.90;;
23346;SDS011;36852;45.466;11.066;2023-06-14T14:28:44;5.05;;;3.95;;
23346;SDS011;36852;45.466;11.066;2023-06-14T14:31:13;4.12;;;3.72;;
23346;SDS011;36852;45.466;11.066;2023-06-14T14:33:45;4.45;;;3.92;;
23346;SDS011;36852;45.466;11.066;2023-06-14T14:36:13;7.10;;;4.30;;
23346;SDS011;36852;45.466;11.066;2023-06-14T14:38:41;9.03;;;4.10;;
23346;SDS011;36852;45.466;11.066;2023-06-14T14:41:09;6.35;;;4.22;;
23346;SDS011;36852;45.466;11.066;2023-06-14T14:43:37;5.67;;;4.10;;
23346;SDS011;36852;45.466;11.066;2023-06-14T14:46:05;6.80;;;4.47;;
23346;SDS011;36852;45.466;11.066;2023-06-14T14:48:33;4.97;;;4.35;;
23346;SDS011;36852;45.466;11.066;2023-06-14T14:51:01;6.40;;;4.20;;
23346;SDS011;36852;45.466;11.066;2023-06-14T14:53:29;4.08;;;3.60;;
23346;SDS011;36852;45.466;11.066;2023-06-14T14:55:57;5.37;;;3.50;;
23346;SDS011;36852;45.466;11.066;2023-06-14T14:58:29;5.22;;;3.83;;
23346;SDS011;36852;45.466;11.066;2023-06-14T15:00:58;5.83;;;3.80;;
23346;SDS011;36852;45.466;11.066;2023-06-14T15:03:27;4.42;;;3.67;;
23346;SDS011;36852;45.466;11.066;2023-06-14T15:05:56;6.10;;;4.20;;
23346;SDS011;36852;45.466;11.066;2023-06-14T15:08:24;7.00;;;3.92;;
23346;SDS011;36852;45.466;11.066;2023-06-14T15:10:51;4.15;;;3.75;;
23346;SDS011;36852;45.466;11.066;2023-06-14T15:13:23;7.72;;;4.08;;
23346;SDS011;36852;45.466;11.066;2023-06-14T15:16:05;4.72;;;3.77;;